Accueil
METAR-TAF:

METAR-TAF

Aéroports :

Aéroport de Valladolid

Valladolid, Espagne

latitude: 41-43N, longitude: 004-51W, altitude: 849 m

Observation

Le bulletin a été fait il y a 12 minutes, à 02:00 UTC
Vent 5 kt de est
Température 4°C
Humidité 87%
Pression 1019 hPa
Visibilité 10 km ou plus
Quelques nuages à une hauteur de 4700 ft

METAR: LEVD 070200Z AUTO 08005KT 9999 FEW047 04/02 Q1019

Heure: 03:12 (02:12 UTC)

Prévision

Le bulletin a été fait il y a 6 heures et 12 minutes, à 20:00 UTC
Prévision valable du 06 à 21 UTC au 07 à 21 UTC
Vent 6 kt de nord-est
Visibilité 10 km ou plus
pas de nuages en-dessous de 1500 mètres et pas de cumulonimbus.

TAF: LEVD 062000Z 0621/0721 04006KT CAVOK TX14/0715Z TN01/0707Z

Observations et prévisions météorologiques de plus de 4000 aéroports (messages METAR et TAF).

Les stations disponibles sont représentées par des disques jaunes et rouges sur la carte.

Passer la souris dessus pour voir le nom de la station.

Cliquer dessus pour voir les observations et prévisions météorologiques.

Pour changer de carte: cliquez sur les boutons verts avec une croix noire pour zoomer, sur le bouton vert avec un tiret pour effectuer un zoom arrière, ou sur les flèches vertes pour les cartes adjacentes.


METAR-TAF: